createdAt,value
2023-05-19T00:02:39.870Z,9.37
2023-05-19T00:08:04.540Z,9.34
2023-05-19T00:13:09.556Z,9.27
2023-05-19T00:18:21.128Z,9.25
2023-05-19T00:23:29.034Z,9.26
2023-05-19T00:28:33.156Z,9.27
2023-05-19T00:33:37.175Z,9.27
2023-05-19T00:39:03.017Z,9.27
2023-05-19T00:44:32.635Z,9.26
2023-05-19T00:50:00.153Z,9.26
2023-05-19T00:56:33.232Z,9.24
2023-05-19T01:02:03.388Z,9.27
2023-05-19T01:07:08.020Z,9.25
2023-05-19T01:12:37.569Z,9.24
2023-05-19T01:18:13.017Z,9.22
2023-05-19T01:23:57.611Z,9.19
2023-05-19T01:29:41.539Z,9.24
2023-05-19T01:36:08.664Z,9.24
2023-05-19T01:41:38.588Z,9.26
2023-05-19T01:47:23.190Z,9.27
2023-05-19T01:52:27.006Z,9.28
2023-05-19T01:58:17.227Z,9.30
2023-05-19T02:03:35.173Z,9.30
2023-05-19T02:15:39.665Z,9.32
2023-05-19T02:21:34.684Z,9.39
2023-05-19T02:26:38.559Z,9.39
2023-05-19T02:32:08.330Z,9.36
2023-05-19T02:37:16.779Z,9.26
2023-05-19T02:42:21.542Z,9.16
2023-05-19T02:48:27.712Z,9.07
2023-05-19T02:53:57.052Z,9.00
2023-05-19T02:59:03.133Z,9.05
2023-05-19T03:04:32.449Z,9.13
2023-05-19T03:10:59.217Z,9.23
2023-05-19T03:16:30.067Z,9.27
2023-05-19T03:22:50.565Z,9.28
2023-05-19T03:28:19.444Z,9.28
2023-05-19T03:34:24.847Z,9.35
2023-05-19T03:40:45.417Z,9.41
2023-05-19T03:45:49.414Z,9.51
2023-05-19T03:51:49.811Z,9.59
2023-05-19T03:57:18.828Z,9.71
2023-05-19T04:03:44.269Z,9.84
2023-05-19T04:08:48.026Z,9.94
2023-05-19T04:13:51.613Z,9.98
2023-05-19T04:19:00.442Z,10.03
2023-05-19T04:32:29.749Z,10.19
2023-05-19T04:38:59.175Z,10.23
2023-05-19T04:48:27.901Z,10.42
2023-05-19T04:53:56.918Z,10.56
2023-05-19T04:59:02.090Z,10.70
2023-05-19T05:04:08.572Z,10.80
2023-05-19T05:09:18.956Z,10.81
2023-05-19T05:15:13.459Z,10.84
2023-05-19T05:20:39.916Z,10.94
2023-05-19T05:27:01.756Z,11.02
2023-05-19T05:32:11.574Z,11.15
2023-05-19T05:37:44.340Z,11.28
2023-05-19T05:43:13.988Z,11.42
2023-05-19T05:48:18.410Z,11.56
2023-05-19T05:54:38.956Z,11.78
2023-05-19T05:59:43.595Z,11.96
2023-05-19T06:05:25.551Z,12.02
2023-05-19T06:10:29.606Z,12.13
2023-05-19T06:15:55.452Z,12.28
2023-05-19T06:21:25.150Z,12.31
2023-05-19T06:26:47.337Z,12.52
2023-05-19T06:32:16.400Z,12.71
2023-05-19T06:45:17.445Z,13.05
2023-05-19T06:50:46.521Z,13.25
2023-05-19T06:56:41.266Z,13.44
2023-05-19T07:01:48.005Z,13.67
2023-05-19T07:07:17.097Z,13.80
2023-05-19T07:19:11.350Z,14.19
2023-05-19T07:25:07.625Z,14.41
2023-05-19T07:30:18.506Z,14.63
2023-05-19T07:35:47.813Z,14.80
2023-05-19T07:41:43.483Z,14.91
2023-05-19T07:46:47.499Z,14.87
2023-05-19T07:51:51.401Z,14.88
2023-05-19T07:57:20.245Z,15.04
2023-05-19T08:02:42.324Z,15.17
2023-05-19T08:08:37.306Z,15.19
2023-05-19T08:13:58.626Z,15.47
2023-05-19T08:19:05.611Z,15.65
2023-05-19T08:24:34.539Z,15.68
2023-05-19T08:30:03.464Z,15.39
2023-05-19T08:35:35.342Z,15.32
2023-05-19T08:42:04.075Z,15.30
2023-05-19T08:47:13.719Z,15.22
2023-05-19T08:52:52.829Z,15.27
2023-05-19T08:58:51.844Z,15.36
2023-05-19T09:11:00.968Z,15.85
2023-05-19T09:16:48.698Z,16.11
2023-05-19T09:22:03.908Z,16.38
2023-05-19T09:27:24.491Z,16.53
2023-05-19T09:32:28.658Z,16.59
2023-05-19T09:37:32.687Z,16.39
2023-05-19T09:43:53.605Z,16.07
2023-05-19T09:49:30.302Z,15.90
2023-05-19T09:54:35.342Z,16.15
2023-05-19T10:00:31.846Z,16.33
2023-05-19T10:05:36.793Z,16.43
2023-05-19T10:11:32.679Z,16.46
2023-05-19T10:17:12.854Z,16.56
2023-05-19T10:22:44.220Z,16.52
2023-05-19T10:28:27.231Z,16.30
2023-05-19T10:34:22.431Z,16.24
2023-05-19T10:39:38.173Z,16.15
2023-05-19T10:45:37.038Z,16.05
2023-05-19T10:50:40.964Z,16.02
2023-05-19T10:56:10.968Z,15.75
2023-05-19T11:01:39.027Z,15.55
2023-05-19T11:14:01.023Z,15.35
2023-05-19T11:19:07.962Z,15.20
2023-05-19T11:24:40.345Z,15.27
2023-05-19T11:31:10.269Z,15.50
2023-05-19T11:36:17.258Z,15.58
2023-05-19T11:41:47.290Z,15.55
2023-05-19T11:48:01.178Z,15.48
2023-05-19T11:53:06.824Z,15.49
2023-05-19T11:58:38.303Z,15.31
2023-05-19T12:04:50.267Z,15.22
2023-05-19T12:21:19.435Z,14.96
2023-05-19T12:27:39.677Z,14.88
2023-05-19T12:33:10.146Z,14.81
2023-05-19T12:38:16.594Z,14.61
2023-05-19T12:44:36.749Z,14.55
2023-05-19T12:50:01.527Z,14.66
2023-05-19T12:55:12.760Z,14.65
2023-05-19T13:00:48.405Z,14.55
2023-05-19T13:06:12.413Z,14.42
2023-05-19T13:11:44.070Z,14.19
2023-05-19T13:16:52.069Z,14.14
2023-05-19T13:22:22.117Z,14.18
2023-05-19T13:41:43.411Z,14.29
2023-05-19T13:46:49.249Z,14.22
2023-05-19T14:08:01.387Z,13.51
2023-05-19T14:13:30.403Z,13.51
2023-05-19T14:18:29.112Z,13.61
2023-05-19T14:24:22.870Z,13.71
2023-05-19T14:29:27.441Z,13.84
2023-05-19T14:43:08.666Z,14.27
2023-05-19T14:55:13.720Z,14.45
2023-05-19T15:14:13.332Z,14.12
2023-05-19T15:19:17.316Z,14.08
2023-05-19T15:24:21.133Z,14.12
2023-05-19T15:37:12.298Z,14.25
2023-05-19T15:58:04.433Z,14.18
2023-05-19T16:03:08.749Z,14.14
2023-05-19T16:13:18.036Z,14.02
2023-05-19T16:18:21.818Z,13.90
2023-05-19T16:23:45.140Z,13.82
2023-05-19T16:28:49.270Z,13.77
2023-05-19T16:33:53.636Z,13.80
2023-05-19T16:38:57.615Z,13.85
2023-05-19T16:44:02.987Z,13.86
2023-05-19T16:49:57.429Z,13.82
2023-05-19T16:55:01.364Z,13.76
2023-05-19T17:00:06.155Z,13.74
2023-05-19T17:05:54.546Z,13.69
2023-05-19T17:11:50.413Z,13.63
2023-05-19T17:23:50.439Z,13.70
2023-05-19T17:28:58.503Z,13.65
2023-05-19T17:34:02.749Z,13.62
2023-05-19T17:39:35.648Z,13.58
2023-05-19T17:44:41.883Z,13.49
2023-05-19T17:56:54.803Z,13.42
2023-05-19T18:09:10.982Z,13.39
2023-05-19T18:14:15.391Z,13.34
2023-05-19T18:19:20.445Z,13.27
2023-05-19T18:24:24.625Z,13.28
2023-05-19T18:29:28.788Z,13.30
2023-05-19T18:34:33.797Z,13.29
2023-05-19T18:39:38.643Z,13.27
2023-05-19T18:44:47.654Z,13.25
2023-05-19T18:49:52.374Z,13.20
2023-05-19T18:54:56.727Z,13.12
2023-05-19T19:00:01.220Z,13.15
2023-05-19T19:05:10.191Z,13.13
2023-05-19T19:10:15.765Z,13.07
2023-05-19T19:15:21.776Z,13.08
2023-05-19T19:20:27.945Z,13.08
2023-05-19T19:25:37.410Z,13.05
2023-05-19T19:30:42.627Z,13.09
2023-05-19T19:35:49.686Z,13.11
2023-05-19T19:40:56.648Z,13.08
2023-05-19T19:46:06.003Z,13.06
2023-05-19T19:51:14.705Z,12.98
2023-05-19T19:56:20.391Z,13.03
2023-05-19T20:01:28.143Z,13.04
2023-05-19T20:06:32.740Z,13.09
2023-05-19T20:12:27.419Z,13.10
2023-05-19T20:17:35.693Z,13.04
2023-05-19T20:22:45.001Z,12.99
2023-05-19T20:28:46.191Z,13.01
2023-05-19T20:33:54.114Z,13.02
2023-05-19T20:38:58.488Z,13.04
2023-05-19T20:44:06.791Z,12.99
2023-05-19T20:49:10.964Z,12.98
2023-05-19T20:54:40.112Z,12.98
2023-05-19T20:59:58.618Z,12.98
2023-05-19T21:05:57.707Z,12.97
2023-05-19T21:11:54.038Z,12.96
2023-05-19T21:24:19.166Z,12.92
2023-05-19T21:29:23.209Z,12.97
2023-05-19T21:35:17.700Z,12.95
2023-05-19T21:40:22.174Z,12.89
2023-05-19T22:00:13.385Z,12.86
2023-05-19T22:06:02.166Z,12.86
2023-05-19T22:11:40.701Z,12.83
2023-05-19T22:16:48.063Z,12.83
2023-05-19T22:22:01.921Z,12.74
2023-05-19T22:27:10.453Z,12.75
2023-05-19T22:32:17.220Z,12.75
2023-05-19T22:37:24.250Z,12.72
2023-05-19T22:42:28.329Z,12.74
2023-05-19T22:47:32.258Z,12.73
2023-05-19T23:06:56.291Z,12.72
2023-05-19T23:12:00.249Z,12.74
2023-05-19T23:17:04.513Z,12.77
2023-05-19T23:22:08.918Z,12.82
2023-05-19T23:27:13.879Z,12.84
2023-05-19T23:32:43.094Z,12.85
2023-05-19T23:37:46.945Z,12.82
2023-05-19T23:43:15.463Z,12.78
2023-05-19T23:48:19.609Z,12.73
2023-05-19T23:53:23.340Z,12.74
2023-05-19T23:58:27.411Z,12.82
